Terminal Aerodrome Forecast
Issued by NWS Wilmington, OH

Current Version | Previous Version | Graphics & Text | Print | Product List | Glossary On
Versions: 1 2 3 4 5 6 7 8 9 10 11 12 13 14 15 16 17 18 19 20 21 22 23 24 25 26 27
621
FTUS41 KILN 262337
TAFCVG
TAF
KCVG 262337Z 2700/2806 17005KT P6SM OVC080
     FM271100 15004KT P6SM -SHRA OVC035
     FM271500 17006KT P6SM VCSH OVC018
     FM271900 19007KT P6SM OVC022
     FM272200 18005KT P6SM OVC050
     FM280200 14005KT P6SM BKN050=

USA.gov is the U.S. government's official web portal to all federal, state and local government web resources and services.